Hovedside
METAR-TAF:

METAR-TAF

Lufthavner :

Liepāja internasjonale lufthavn

Liepāja, Latvia

breddegrad: 56-31N, lengdegrad: 021-05E, høyde over havet: 5 m

Gjeldene værobservasjon

Denne rapporten ble laget for 19 minutter siden, klokken 06:50 UTC
Vind 5 kt fra Sørøst, skiftende mellom Øst og Sør-sørøst
Temperatur 16°C
Luftfuktighet 31%
Trykk 1029 hPa
Sikt 10 km eller mer

METAR: EVLA 230650Z AUTO 13005KT 100V160 9999 NCD 16/M01 Q1029

Tid: 10:09 (07:09 UTC)

Varsel

Denne rapporten ble laget for 2 timer og 7 minutter siden, klokken 05:02 UTC
Varsel gyldig fra 23. klokken 06 UTC til 24. klokken 06 UTC
Vind 7 kt fra Øst-sørøst
Sikt 10 km eller mer
ingen skyer under 1500 m og ingen bygeskyer

TAF: EVLA 230502Z 2306/2406 12007KT CAVOK

Værobservasjoner og værvarsel for over 4000 flyplasser (METAR- og TAF-rapporter).

Tilgjengelige stasjoner er representert av de røde og gule prikkene på kartet.

Hold musepekeren over prikken for å se navnet på stasjonen.

Klikk så for å se værobservasjoner og -varsler.

For å forandre kartet kan du klikke på den grønne knappen med svart kryss for å zoome inn, på den grønne knappen med strek for å zoome ut, eller på de grønne pilene for å se tilstøtende kart.


METAR-TAF: